Grand Mercury — HOOC — position and weather

sailwx.info

Track history (hours):
 
Tides and Currents Weather Stations Pressure Air Temp Water Temp Dewpoint Dewpoint Depression Visibility Wind Speed Wind Dir Waves Ship Positions

Grand Mercury

Last reported at 2015-Mar-03 07:16 UTC. Time now 2015-Mar-26 22:34 UTC.
Position N 40°08' W 073°50'.
Warning: this ship's position is 23 days out of date.

Length 200 m; draft 8.8 m.

Type: Cargo ship. MMSI: 355649000.

Date/timePositionNaut miles runAvg speedWind from/ knotsBaromVisibWave heightAir tempDewpointWater temp
2015-Mar-03 07:16N 40°08' W 073°50'1316.9
2015-Mar-03 06:29N 40°21' W 073°49'1010.4
2015-Mar-03 05:33N 40°29' W 073°55'1212.6
2015-Mar-03 04:33N 40°40' W 074°04'1 0.7
2015-Mar-03 03:33N 40°40' W 074°05'0 0.0
2015-Mar-03 02:33N 40°40' W 074°05'0 0.0
2015-Mar-03 01:33N 40°40' W 074°05'0 0.0
2015-Mar-03 00:33N 40°40' W 074°05'0 0.0
2015-Mar-02 23:33N 40°40' W 074°05'0 0.0
2015-Mar-02 22:33N 40°40' W 074°05'0 0.0
2015-Mar-02 21:33N 40°40' W 074°05'0 0.0
2015-Mar-02 20:33N 40°40' W 074°05'0 0.0
2015-Mar-02 19:33N 40°40' W 074°05'0 0.2
2015-Mar-02 18:33N 40°40' W 074°05'5 5.0
2015-Mar-02 17:33N 40°36' W 074°02'1110.8
2015-Mar-02 16:33N 40°28' W 073°52'6 6.1
2015-Mar-02 15:33N 40°23' W 073°47'25 8.3
2015-Mar-02 12:33N 39°59' W 073°43'9 9.2
2015-Mar-02 11:33N 39°49' W 073°42'1010.2
2015-Mar-02 10:33N 39°39' W 073°41'68 2.6
2015-Mar-01 08:18N 39°54' W 075°08'0 0.0
2015-Mar-01 07:33N 39°54' W 075°08'0 0.0
2015-Mar-01 06:33N 39°54' W 075°08'0 0.0
2015-Mar-01 05:34N 39°54' W 075°08'0 0.0
2015-Mar-01 04:34N 39°54' W 075°08'0 0.0
2015-Mar-01 03:34N 39°54' W 075°08'0 0.0
2015-Mar-01 02:34N 39°54' W 075°08'0 0.0
2015-Mar-01 01:34N 39°54' W 075°08'0 0.0
2015-Mar-01 00:34N 39°54' W 075°08'4 3.7
2015-Feb-28 23:34N 39°52' W 075°12'9 9.4
2015-Feb-28 22:33N 39°49' W 075°24'1110.6
2015-Feb-28 21:34N 39°40' W 075°32'1212.0
2015-Feb-28 20:33N 39°28' W 075°34'1312.7
2015-Feb-28 19:34N 39°19' W 075°23'1313.0
2015-Feb-28 18:34N 39°08' W 075°14'1414.1
2015-Feb-28 17:33N 38°55' W 075°06'1010.2
2015-Feb-28 16:33N 38°46' W 075°00'9 9.0
2015-Feb-28 15:33N 38°40' W 074°52'8 8.2
2015-Feb-28 14:33N 38°33' W 074°45'49412.0
2015-Feb-26 21:15N 32°06' W 081°01'4 6.1
2015-Feb-26 20:33N 32°05' W 081°06'0 0.0
2015-Feb-26 19:33N 32°05' W 081°06'0 0.0
2015-Feb-26 18:33N 32°05' W 081°06'0 0.0
2015-Feb-26 17:33N 32°05' W 081°06'0 0.0
2015-Feb-26 16:33N 32°05' W 081°06'0 0.0
2015-Feb-26 15:33N 32°05' W 081°06'0 0.0
2015-Feb-26 14:33N 32°05' W 081°06'0 0.0
2015-Feb-26 13:33N 32°05' W 081°06'0 0.0
2015-Feb-26 12:33N 32°05' W 081°06'0 0.0
2015-Feb-26 11:33N 32°05' W 081°06'0 0.0
2015-Feb-26 10:33N 32°05' W 081°06'0 0.0
2015-Feb-26 09:33N 32°05' W 081°06'1 0.7
2015-Feb-26 08:33N 32°06' W 081°07'6 5.8
2015-Feb-26 07:33N 32°06' W 080°60'1212.2
2015-Feb-26 06:33N 31°60' W 080°47'1010.3
2015-Feb-26 05:34N 31°56' W 080°36'8 7.6
2015-Feb-26 04:33N 31°56' W 080°27'  
Track history (hours):
 
Tides and Currents Weather Stations Pressure Air Temp Water Temp Dewpoint Dewpoint Depression Visibility Wind Speed Wind Dir Waves Ship Positions

Grand Mercury

Last reported at 2015-Mar-03 07:16 UTC. Time now 2015-Mar-26 22:34 UTC.
Position N 40°08' W 073°50'.
Warning: this ship's position is 23 days out of date.

Length 200 m; draft 8.8 m.

Type: Cargo ship. MMSI: 355649000.

Date/timePositionNaut miles runAvg speedWind from/ knotsBaromVisibWave heightAir tempDewpointWater temp
2015-Mar-03 07:16N 40°08' W 073°50'1316.9
2015-Mar-03 06:29N 40°21' W 073°49'1010.4
2015-Mar-03 05:33N 40°29' W 073°55'1212.6
2015-Mar-03 04:33N 40°40' W 074°04'1 0.7
2015-Mar-03 03:33N 40°40' W 074°05'0 0.0
2015-Mar-03 02:33N 40°40' W 074°05'0 0.0
2015-Mar-03 01:33N 40°40' W 074°05'0 0.0
2015-Mar-03 00:33N 40°40' W 074°05'0 0.0
2015-Mar-02 23:33N 40°40' W 074°05'0 0.0
2015-Mar-02 22:33N 40°40' W 074°05'0 0.0
2015-Mar-02 21:33N 40°40' W 074°05'0 0.0
2015-Mar-02 20:33N 40°40' W 074°05'0 0.0
2015-Mar-02 19:33N 40°40' W 074°05'0 0.2
2015-Mar-02 18:33N 40°40' W 074°05'5 5.0
2015-Mar-02 17:33N 40°36' W 074°02'1110.8
2015-Mar-02 16:33N 40°28' W 073°52'6 6.1
2015-Mar-02 15:33N 40°23' W 073°47'25 8.3
2015-Mar-02 12:33N 39°59' W 073°43'9 9.2
2015-Mar-02 11:33N 39°49' W 073°42'1010.2
2015-Mar-02 10:33N 39°39' W 073°41'68 2.6
2015-Mar-01 08:18N 39°54' W 075°08'0 0.0
2015-Mar-01 07:33N 39°54' W 075°08'0 0.0
2015-Mar-01 06:33N 39°54' W 075°08'0 0.0
2015-Mar-01 05:34N 39°54' W 075°08'0 0.0
2015-Mar-01 04:34N 39°54' W 075°08'0 0.0
2015-Mar-01 03:34N 39°54' W 075°08'0 0.0
2015-Mar-01 02:34N 39°54' W 075°08'0 0.0
2015-Mar-01 01:34N 39°54' W 075°08'0 0.0
2015-Mar-01 00:34N 39°54' W 075°08'4 3.7
2015-Feb-28 23:34N 39°52' W 075°12'9 9.4
2015-Feb-28 22:33N 39°49' W 075°24'1110.6
2015-Feb-28 21:34N 39°40' W 075°32'1212.0
2015-Feb-28 20:33N 39°28' W 075°34'1312.7
2015-Feb-28 19:34N 39°19' W 075°23'1313.0
2015-Feb-28 18:34N 39°08' W 075°14'1414.1
2015-Feb-28 17:33N 38°55' W 075°06'1010.2
2015-Feb-28 16:33N 38°46' W 075°00'9 9.0
2015-Feb-28 15:33N 38°40' W 074°52'8 8.2
2015-Feb-28 14:33N 38°33' W 074°45'49412.0
2015-Feb-26 21:15N 32°06' W 081°01'4 6.1
2015-Feb-26 20:33N 32°05' W 081°06'0 0.0
2015-Feb-26 19:33N 32°05' W 081°06'0 0.0
2015-Feb-26 18:33N 32°05' W 081°06'0 0.0
2015-Feb-26 17:33N 32°05' W 081°06'0 0.0
2015-Feb-26 16:33N 32°05' W 081°06'0 0.0
2015-Feb-26 15:33N 32°05' W 081°06'0 0.0
2015-Feb-26 14:33N 32°05' W 081°06'0 0.0
2015-Feb-26 13:33N 32°05' W 081°06'0 0.0
2015-Feb-26 12:33N 32°05' W 081°06'0 0.0
2015-Feb-26 11:33N 32°05' W 081°06'0 0.0
2015-Feb-26 10:33N 32°05' W 081°06'0 0.0
2015-Feb-26 09:33N 32°05' W 081°06'1 0.7
2015-Feb-26 08:33N 32°06' W 081°07'6 5.8
2015-Feb-26 07:33N 32°06' W 080°60'1212.2
2015-Feb-26 06:33N 31°60' W 080°47'1010.3
2015-Feb-26 05:34N 31°56' W 080°36'8 7.6
2015-Feb-26 04:33N 31°56' W 080°27'  

Dump ship's entire track history